Paris, IL

10:56 AM CDT on June 27, 2017 (GMT -0500)
Edgar County

Weather History for KPRG - September, 2012

Change the Weather History Date:

Thursday, September 20, 2012

  Actual Average (KHUF) Record (KHUF)
Temperature  
Mean Temperature 62 °F -  
Max Temperature 78 °F 78 °F 95 °F (1955)
Min Temperature 46 °F 56 °F 33 °F (1991)
Degree Days  
Heating Degree Days 3    
Growing Degree Days 12 (Base 50)    
Moisture  
Dew Point 45 °F    
Average Humidity 57    
Maximum Humidity 88    
Minimum Humidity 24    
Precipitation  
Precipitation 0.01 in - - ()
Sea Level Pressure  
Sea Level Pressure 29.96 in    
Wind  
Wind Speed 9 mph (SW)    
Max Wind Speed 16 mph    
Max Gust Speed 23 mph    
Visibility 10 miles    
Events Rain , Thunderstorm    
Averages and records for this station are not official NWS values.
T = Trace of Precipitation, MM = Missing Value Source: NWS Daily Summary

Daily Weather History Graph

Daily Weather History Graph

Search for Another Location

Airport or City:

Trip Planner

Search our weather history database for the weather conditions in past years. The results will help you decide how hot, cold, wet, or windy it might be!

Date:

Astronomy

Sep. 20, 2012 Rise Set
Actual Time 6:36 AM CDT 6:50 PM CDT
Civil Twilight 6:09 AM CDT 7:17 PM CDT
Nautical Twilight 5:38 AM CDT 7:48 PM CDT
Astronomical Twilight 5:06 AM CDT 8:20 PM CDT
Moon 11:53 AM CDT (9/20) 9:52 PM CDT (9/20)
Length of Visible Light 13h 07m
Length of Day
12h 13m
Waxing Crescent, 27% of the Moon is Illuminated
Sep 20
Waxing Crescent
Sep 22
First Quarter
Sep 29
Full
Oct 8
Last Quarter
Oct 15
New

Hourly Weather History & Observations

Time (CDT) Temp. Dew Point Humidity Pressure Visibility Wind Dir Wind Speed Gust Speed Precip Events Conditions
12:15 AM 53.8 °F 43.7 °F 69% 30.02 in 10.0 mi SSE 6.9 mph - N/A   Clear
12:35 AM 54.5 °F 43.9 °F 67% 30.02 in 10.0 mi South 6.9 mph - N/A   Clear
12:55 AM 55.8 °F 43.9 °F 64% 30.01 in 10.0 mi South 10.4 mph - N/A   Clear
1:15 AM 56.7 °F 43.7 °F 62% 30.00 in 10.0 mi South 11.5 mph - N/A   Clear
1:35 AM 57.2 °F 43.7 °F 61% 29.99 in 10.0 mi South 12.7 mph 19.6 mph N/A   Clear
1:55 AM 58.1 °F 43.3 °F 58% 29.99 in 10.0 mi South 10.4 mph 17.3 mph N/A   Clear
2:15 AM 57.2 °F 43.3 °F 60% 29.99 in 10.0 mi South 11.5 mph - N/A   Clear
2:35 AM 58.1 °F 43.5 °F 58% 29.98 in 10.0 mi South 11.5 mph 18.4 mph N/A   Clear
2:55 AM 58.5 °F 43.3 °F 57% 29.98 in 10.0 mi South 12.7 mph 18.4 mph N/A   Clear
3:15 AM 58.3 °F 43.3 °F 58% 29.97 in 10.0 mi South 12.7 mph 18.4 mph N/A   Clear
3:35 AM 58.5 °F 43.5 °F 58% 29.95 in 10.0 mi South 16.1 mph 23.0 mph N/A   Clear
3:55 AM 58.6 °F 43.7 °F 58% 29.96 in 10.0 mi South 12.7 mph 21.9 mph N/A   Clear
4:15 AM 58.3 °F 43.9 °F 59% 29.95 in 10.0 mi South 12.7 mph 17.3 mph N/A   Scattered Clouds
4:35 AM 58.3 °F 44.2 °F 60% 29.94 in 10.0 mi SSW 12.7 mph 17.3 mph N/A   Mostly Cloudy
4:55 AM 58.1 °F 44.2 °F 60% 29.95 in 10.0 mi SSW 12.7 mph 17.3 mph N/A   Scattered Clouds
5:15 AM 57.9 °F 44.6 °F 61% 29.96 in 10.0 mi SSW 11.5 mph 17.3 mph N/A   Clear
5:35 AM 57.6 °F 44.8 °F 62% 29.95 in 10.0 mi SSW 12.7 mph 17.3 mph N/A   Clear
5:55 AM 57.7 °F 45.0 °F 62% 29.95 in 10.0 mi SSW 10.4 mph 17.3 mph N/A   Clear
6:15 AM 57.7 °F 45.3 °F 63% 29.96 in 10.0 mi SSW 10.4 mph 17.3 mph N/A   Clear
6:35 AM 57.6 °F 45.5 °F 64% 29.95 in 10.0 mi SSW 9.2 mph 16.1 mph N/A   Scattered Clouds
6:55 AM 57.6 °F 46.0 °F 65% 29.97 in 10.0 mi SSW 9.2 mph - N/A   Mostly Cloudy
7:15 AM 55.4 °F 49.1 °F 79% 29.96 in 10.0 mi SW 8.1 mph - N/A Rain , Thunderstorm Rain
7:35 AM 54.5 °F 50.2 °F 85% 29.96 in 10.0 mi SSW 5.8 mph - 0.01 in   Mostly Cloudy
7:55 AM 54.7 °F 50.7 °F 86% 29.96 in 10.0 mi South 6.9 mph - 0.01 in   Mostly Cloudy
8:15 AM 55.6 °F 51.1 °F 85% 29.96 in 10.0 mi SSW 6.9 mph - N/A   Scattered Clouds
8:35 AM 58.5 °F 51.3 °F 77% 29.96 in 10.0 mi SSW 8.1 mph - N/A   Scattered Clouds
8:55 AM 58.6 °F 51.6 °F 77% 29.96 in 10.0 mi SSW 6.9 mph - N/A   Mostly Cloudy
9:15 AM 59.0 °F 51.6 °F 76% 29.97 in 10.0 mi SSW 8.1 mph - N/A   Overcast
9:35 AM 59.9 °F 51.4 °F 74% 29.97 in 10.0 mi SW 8.1 mph - N/A   Overcast
9:55 AM 61.0 °F 52.2 °F 73% 29.97 in 10.0 mi SW 10.4 mph - N/A   Mostly Cloudy
10:15 AM 65.1 °F 52.9 °F 65% 29.97 in 10.0 mi SW 10.4 mph 16.1 mph N/A   Scattered Clouds
10:35 AM 65.3 °F 52.9 °F 64% 29.97 in 10.0 mi SW 8.1 mph - N/A   Scattered Clouds
10:55 AM 67.1 °F 53.8 °F 62% 29.97 in 10.0 mi SSW 9.2 mph - N/A   Clear
11:15 AM 68.0 °F 54.1 °F 61% 29.97 in 10.0 mi SSW 8.1 mph - N/A   Clear
11:35 AM 69.1 °F 54.5 °F 60% 29.96 in 10.0 mi SSW 6.9 mph - N/A   Clear
11:55 AM 70.7 °F 55.2 °F 58% 29.96 in 10.0 mi WSW 5.8 mph - N/A   Clear
12:15 PM 70.9 °F 54.0 °F 55% 29.96 in 10.0 mi West 9.2 mph - N/A   Scattered Clouds
12:35 PM 72.9 °F 54.3 °F 52% 29.95 in 10.0 mi West 5.8 mph - N/A   Clear
12:55 PM 74.1 °F 53.6 °F 49% 29.94 in 10.0 mi SW 9.2 mph - N/A   Scattered Clouds
1:15 PM 74.7 °F 54.0 °F 48% 29.93 in 10.0 mi WSW 4.6 mph - N/A   Clear
1:35 PM 74.8 °F 51.8 °F 44% 29.92 in 10.0 mi WSW 5.8 mph - N/A   Scattered Clouds
1:55 PM 77.2 °F 49.1 °F 37% 29.92 in 10.0 mi SSW 5.8 mph - N/A   Clear
2:15 PM 77.2 °F 46.2 °F 33% 29.92 in 10.0 mi West 10.4 mph - N/A   Clear
2:35 PM 77.4 °F 44.8 °F 31% 29.91 in 10.0 mi West 9.2 mph 16.1 mph N/A   Clear
2:55 PM 77.5 °F 44.4 °F 31% 29.91 in 10.0 mi West 4.6 mph - N/A   Clear
3:15 PM 77.5 °F 43.7 °F 30% 29.91 in 10.0 mi West 9.2 mph - N/A   Clear
3:35 PM 77.9 °F 43.3 °F 29% 29.91 in 10.0 mi SW 4.6 mph - N/A   Clear
3:55 PM 78.6 °F 39.6 °F 25% 29.91 in 10.0 mi WSW 9.2 mph - N/A   Clear
4:15 PM 77.4 °F 37.9 °F 24% 29.91 in 10.0 mi West 11.5 mph - N/A   Clear
4:35 PM 77.2 °F 37.9 °F 24% 29.91 in 10.0 mi WNW 10.4 mph - N/A   Clear
4:55 PM 76.6 °F 37.4 °F 24% 29.91 in 10.0 mi West 9.2 mph - N/A   Clear
5:15 PM 75.2 °F 37.4 °F 25% 29.92 in 10.0 mi WNW 12.7 mph 17.3 mph N/A   Clear
5:35 PM 72.5 °F 37.0 °F 27% 29.92 in 10.0 mi WNW 9.2 mph - N/A   Clear
5:55 PM 72.0 °F 37.2 °F 28% 29.93 in 10.0 mi WNW 8.1 mph - N/A   Clear
6:15 PM 70.9 °F 37.2 °F 29% 29.93 in 7.0 mi West 6.9 mph - N/A   Clear
6:35 PM 70.3 °F 36.7 °F 29% 29.93 in 10.0 mi WNW 9.2 mph - N/A   Clear
6:55 PM 68.5 °F 37.9 °F 33% 29.94 in 7.0 mi WNW 6.9 mph - N/A   Clear
7:15 PM 67.3 °F 38.3 °F 35% 29.95 in 10.0 mi WNW 6.9 mph - N/A   Clear
7:35 PM 66.4 °F 38.7 °F 36% 29.96 in 10.0 mi WNW 9.2 mph - N/A   Clear
7:55 PM 65.3 °F 39.6 °F 39% 29.96 in 7.0 mi NW 5.8 mph - N/A   Clear
8:15 PM 62.4 °F 40.8 °F 45% 29.97 in 10.0 mi NW 4.6 mph - N/A   Clear
8:35 PM 59.9 °F 41.5 °F 51% 29.97 in 10.0 mi WNW 3.5 mph - N/A   Clear
8:55 PM 57.7 °F 42.1 °F 56% 29.98 in 10.0 mi WNW 3.5 mph - N/A   Clear
9:15 PM 54.9 °F 43.0 °F 64% 29.98 in 10.0 mi Calm Calm - N/A   Clear
9:35 PM 51.1 °F 44.6 °F 78% 29.98 in 10.0 mi Calm Calm - N/A   Clear
9:55 PM 49.8 °F 44.4 °F 82% 29.98 in 10.0 mi Calm Calm - N/A   Clear
10:15 PM 48.2 °F 44.1 °F 86% 29.98 in 10.0 mi Calm Calm - N/A   Clear
10:35 PM 47.7 °F 43.7 °F 86% 29.98 in 10.0 mi Calm Calm - N/A   Clear
10:55 PM 47.1 °F 43.2 °F 86% 29.99 in 10.0 mi Calm Calm - N/A   Clear
11:15 PM 46.4 °F 42.8 °F 87% 29.99 in 10.0 mi Calm Calm - N/A   Clear
11:35 PM 46.4 °F 42.8 °F 87% 29.99 in 10.0 mi Calm Calm - N/A   Clear
11:55 PM 46.0 °F 42.8 °F 88% 29.99 in 10.0 mi Calm Calm - N/A   Clear